createdAt,value
2017-03-27T00:00:29.249Z,1018.21
2017-03-27T00:01:29.235Z,1018.22
2017-03-27T00:02:29.206Z,1018.22
2017-03-27T00:03:29.197Z,1018.23
2017-03-27T00:04:29.167Z,1018.25
2017-03-27T00:05:29.172Z,1018.23
2017-03-27T00:06:29.127Z,1018.27
2017-03-27T00:07:29.106Z,1018.26
2017-03-27T00:08:29.083Z,1018.29
2017-03-27T00:09:29.165Z,1018.29
2017-03-27T00:10:29.046Z,1018.33
2017-03-27T00:11:29.028Z,1018.3
2017-03-27T00:12:29.005Z,1018.28
2017-03-27T00:13:29.037Z,1018.27
2017-03-27T00:14:28.967Z,1018.27
2017-03-27T00:15:28.944Z,1018.25
2017-03-27T00:16:28.926Z,1018.24
2017-03-27T00:17:28.906Z,1018.23
2017-03-27T00:18:28.886Z,1018.22
2017-03-27T00:19:28.867Z,1018.2
2017-03-27T00:20:28.846Z,1018.18
2017-03-27T00:21:28.975Z,1018.18
2017-03-27T00:22:28.805Z,1018.2
2017-03-27T00:23:28.779Z,1018.16
2017-03-27T00:24:28.763Z,1018.17
2017-03-27T00:25:28.743Z,1018.15
2017-03-27T00:26:28.726Z,1018.12
2017-03-27T00:27:28.702Z,1018.13
2017-03-27T00:28:28.678Z,1018.12
2017-03-27T00:29:28.663Z,1018.11
2017-03-27T00:30:28.638Z,1018.17
2017-03-27T00:31:28.626Z,1018.12
2017-03-27T00:32:28.600Z,1018.1
2017-03-27T00:33:28.584Z,1018.07
2017-03-27T00:34:28.556Z,1018.09
2017-03-27T00:35:28.543Z,1018.06
2017-03-27T00:36:28.515Z,1018.09
2017-03-27T00:37:28.506Z,1018.07
2017-03-27T00:38:28.476Z,1018.05
2017-03-27T00:39:28.455Z,1018.01
2017-03-27T00:40:28.433Z,1018.06
2017-03-27T00:41:28.416Z,1018.03
2017-03-27T00:42:28.402Z,1018.06
2017-03-27T00:43:28.402Z,1018.03
2017-03-27T00:44:28.356Z,1018.02
2017-03-27T00:45:28.331Z,1018.02
2017-03-27T00:46:28.316Z,1018.03
2017-03-27T00:47:28.291Z,1018
2017-03-27T00:48:28.277Z,1017.97
2017-03-27T00:49:28.253Z,1018.01
2017-03-27T00:50:28.228Z,1017.97
2017-03-27T00:51:28.212Z,1017.95
2017-03-27T00:52:28.190Z,1017.96
2017-03-27T00:53:28.175Z,1017.95
2017-03-27T00:54:28.147Z,1017.92
2017-03-27T00:55:28.127Z,1017.93
2017-03-27T00:56:28.106Z,1017.95
2017-03-27T00:57:28.086Z,1017.94
2017-03-27T00:58:28.067Z,1017.94
2017-03-27T00:59:28.046Z,1017.94
2017-03-27T01:00:28.023Z,1017.98
2017-03-27T01:01:28.001Z,1017.96
2017-03-27T01:02:27.983Z,1017.99
2017-03-27T01:03:27.964Z,1017.96
2017-03-27T01:04:27.945Z,1017.98
2017-03-27T01:05:27.921Z,1017.97
2017-03-27T01:06:27.902Z,1017.95
2017-03-27T01:07:27.879Z,1017.96
2017-03-27T01:08:27.857Z,1017.97
2017-03-27T01:09:27.848Z,1017.97
2017-03-27T01:10:27.820Z,1018
2017-03-27T01:11:27.803Z,1018.02
2017-03-27T01:12:27.776Z,1018.03
2017-03-27T01:13:27.755Z,1018.04
2017-03-27T01:14:27.736Z,1018.04
2017-03-27T01:15:27.716Z,1018.01
2017-03-27T01:16:27.695Z,1018.03
2017-03-27T01:17:27.675Z,1018.08
2017-03-27T01:18:27.656Z,1018.06
2017-03-27T01:19:27.637Z,1018.07
2017-03-27T01:20:27.618Z,1018.06
2017-03-27T01:21:27.590Z,1018.1
2017-03-27T01:22:27.572Z,1018.08
2017-03-27T01:23:27.546Z,1018.08
2017-03-27T01:24:27.534Z,1018.07
2017-03-27T01:25:27.505Z,1018.08
2017-03-27T01:26:27.486Z,1018.08
2017-03-27T01:27:27.468Z,1018.07
2017-03-27T01:28:27.446Z,1018.08
2017-03-27T01:29:27.428Z,1018.09
2017-03-27T01:30:27.402Z,1018.11
2017-03-27T01:31:27.386Z,1018.1
2017-03-27T01:32:27.365Z,1018.1
2017-03-27T01:33:27.342Z,1018.11
2017-03-27T01:34:27.323Z,1018.1
2017-03-27T01:35:27.306Z,1018.14
2017-03-27T01:36:27.281Z,1018.08
2017-03-27T01:37:27.255Z,1018.09
2017-03-27T01:38:27.237Z,1018.09
2017-03-27T01:39:27.215Z,1018.07
2017-03-27T01:40:27.196Z,1018.06
2017-03-27T01:41:27.175Z,1018.08
2017-03-27T01:42:27.153Z,1018.09
2017-03-27T01:43:27.138Z,1018.09
2017-03-27T01:44:27.113Z,1018.07
2017-03-27T01:45:27.094Z,1018.04
2017-03-27T01:46:27.072Z,1018.06
2017-03-27T01:47:27.045Z,1018.08
2017-03-27T01:48:27.025Z,1018.04
2017-03-27T01:49:27.007Z,1018.1
2017-03-27T01:50:26.986Z,1018.07
2017-03-27T01:51:26.966Z,1018.12
2017-03-27T01:52:26.946Z,1018.11
2017-03-27T01:53:26.926Z,1018.12
2017-03-27T01:54:26.902Z,1018.13
2017-03-27T01:55:26.880Z,1018.12
2017-03-27T01:56:26.863Z,1018.18
2017-03-27T01:57:26.840Z,1018.15
2017-03-27T01:58:26.816Z,1018.19
2017-03-27T01:59:26.796Z,1018.17
2017-03-27T02:00:26.778Z,1018.11
2017-03-27T02:01:26.754Z,1018.12
2017-03-27T02:02:26.732Z,1018.1
2017-03-27T02:03:26.715Z,1018.12
2017-03-27T02:04:26.696Z,1018.1
2017-03-27T02:05:26.667Z,1018.08
2017-03-27T02:06:26.646Z,1018.04
2017-03-27T02:07:26.627Z,1018.08
2017-03-27T02:08:26.606Z,1018.05
2017-03-27T02:09:26.587Z,1018.06
2017-03-27T02:10:26.566Z,1018.05
2017-03-27T02:11:26.546Z,1018
2017-03-27T02:12:26.523Z,1017.99
2017-03-27T02:13:26.506Z,1018
2017-03-27T02:14:26.485Z,1018.02
2017-03-27T02:15:26.459Z,1017.97
2017-03-27T02:16:26.435Z,1017.94
2017-03-27T02:17:26.415Z,1017.96
2017-03-27T02:18:26.398Z,1017.95
2017-03-27T02:19:26.374Z,1017.93
2017-03-27T02:20:26.356Z,1017.93
2017-03-27T02:21:26.334Z,1017.9
2017-03-27T02:22:26.316Z,1017.9
2017-03-27T02:23:26.296Z,1017.86
2017-03-27T02:24:26.267Z,1017.92
2017-03-27T02:25:26.246Z,1017.9
2017-03-27T02:26:26.226Z,1017.87
2017-03-27T02:27:26.200Z,1017.9
2017-03-27T02:28:26.182Z,1017.89
2017-03-27T02:29:26.165Z,1017.86
2017-03-27T02:30:26.142Z,1017.82
2017-03-27T02:31:26.116Z,1017.79
2017-03-27T02:32:26.095Z,1017.79
2017-03-27T02:33:26.075Z,1017.77
2017-03-27T02:34:26.057Z,1017.76
2017-03-27T02:35:26.036Z,1017.75
2017-03-27T02:36:26.017Z,1017.74
2017-03-27T02:37:25.991Z,1017.76
2017-03-27T02:38:25.977Z,1017.76
2017-03-27T02:39:25.948Z,1017.74
2017-03-27T02:40:25.927Z,1017.74
2017-03-27T02:41:25.905Z,1017.76
2017-03-27T02:42:25.888Z,1017.71
2017-03-27T02:43:25.860Z,1017.69
2017-03-27T02:44:25.840Z,1017.7
2017-03-27T02:45:25.829Z,1017.68
2017-03-27T02:46:25.801Z,1017.7
2017-03-27T02:47:25.777Z,1017.68
2017-03-27T02:48:25.761Z,1017.66
2017-03-27T02:49:25.734Z,1017.65
2017-03-27T02:50:25.714Z,1017.63
2017-03-27T02:51:25.697Z,1017.63
2017-03-27T02:52:25.671Z,1017.63
2017-03-27T02:53:25.653Z,1017.62
2017-03-27T02:54:25.637Z,1017.61
2017-03-27T02:55:25.607Z,1017.6
2017-03-27T02:56:25.586Z,1017.6
2017-03-27T02:57:25.567Z,1017.59
2017-03-27T02:58:25.549Z,1017.63
2017-03-27T02:59:25.525Z,1017.62
2017-03-27T03:00:25.501Z,1017.61
2017-03-27T03:01:25.480Z,1017.68
2017-03-27T03:02:25.467Z,1017.65
2017-03-27T03:03:25.437Z,1017.65
2017-03-27T03:04:25.417Z,1017.67
2017-03-27T03:05:25.393Z,1017.65
2017-03-27T03:06:25.377Z,1017.65
2017-03-27T03:07:25.348Z,1017.64
2017-03-27T03:08:25.340Z,1017.64
2017-03-27T03:09:25.307Z,1017.67
2017-03-27T03:10:25.288Z,1017.64
2017-03-27T03:11:25.264Z,1017.66
2017-03-27T03:12:25.242Z,1017.69
2017-03-27T03:13:25.219Z,1017.68
2017-03-27T03:14:25.201Z,1017.65
2017-03-27T03:15:25.177Z,1017.68
2017-03-27T03:16:25.155Z,1017.65
2017-03-27T03:17:25.134Z,1017.66
2017-03-27T03:18:25.113Z,1017.68
2017-03-27T03:19:25.097Z,1017.66
2017-03-27T03:20:25.071Z,1017.66
2017-03-27T03:21:25.048Z,1017.66
2017-03-27T03:22:25.029Z,1017.67
2017-03-27T03:23:25.008Z,1017.72
2017-03-27T03:24:24.986Z,1017.71
2017-03-27T03:25:24.962Z,1017.7
2017-03-27T03:26:24.942Z,1017.66
2017-03-27T03:27:24.922Z,1017.68
2017-03-27T03:28:24.905Z,1017.73
2017-03-27T03:29:24.880Z,1017.69
2017-03-27T03:30:24.853Z,1017.74
2017-03-27T03:31:24.837Z,1017.74
2017-03-27T03:32:24.817Z,1017.77
2017-03-27T03:33:24.787Z,1017.8
2017-03-27T03:34:24.766Z,1017.76
2017-03-27T03:35:24.748Z,1017.78
2017-03-27T03:36:24.722Z,1017.77
2017-03-27T03:37:24.706Z,1017.78
2017-03-27T03:38:24.687Z,1017.8
2017-03-27T03:39:24.660Z,1017.77
2017-03-27T03:40:24.637Z,1017.78
2017-03-27T03:41:24.617Z,1017.79
2017-03-27T03:42:24.596Z,1017.8
2017-03-27T03:43:24.578Z,1017.77
2017-03-27T03:44:24.556Z,1017.76
2017-03-27T03:45:24.527Z,1017.75
2017-03-27T03:46:24.514Z,1017.74
2017-03-27T03:47:24.485Z,1017.74
2017-03-27T03:48:24.465Z,1017.76
2017-03-27T03:49:24.445Z,1017.8
2017-03-27T03:50:24.426Z,1017.78
2017-03-27T03:51:24.397Z,1017.81
2017-03-27T03:52:24.376Z,1017.76
2017-03-27T03:53:24.357Z,1017.79
2017-03-27T03:54:24.338Z,1017.78
2017-03-27T03:55:24.313Z,1017.79
2017-03-27T03:56:24.296Z,1017.8
2017-03-27T03:57:24.277Z,1017.83
2017-03-27T03:58:24.244Z,1017.8
2017-03-27T03:59:24.226Z,1017.82
2017-03-27T04:00:24.205Z,1017.82
2017-03-27T04:01:24.186Z,1017.84
2017-03-27T04:02:24.170Z,1017.82
2017-03-27T04:03:24.137Z,1017.84
2017-03-27T04:04:24.116Z,1017.84
2017-03-27T04:05:24.098Z,1017.88
2017-03-27T04:06:24.075Z,1017.89
2017-03-27T04:07:24.057Z,1017.88
2017-03-27T04:08:24.027Z,1017.89
2017-03-27T04:09:24.007Z,1017.89
2017-03-27T04:10:23.987Z,1017.89
2017-03-27T04:11:23.965Z,1017.92
2017-03-27T04:12:23.946Z,1017.9
2017-03-27T04:13:23.916Z,1017.86
2017-03-27T04:14:23.896Z,1017.88
2017-03-27T04:15:23.875Z,1017.88
2017-03-27T04:16:23.853Z,1017.88
2017-03-27T04:17:23.832Z,1017.9
2017-03-27T04:18:23.807Z,1017.89
2017-03-27T04:19:23.787Z,1017.93
2017-03-27T04:20:23.765Z,1017.96
2017-03-27T04:21:23.743Z,1017.96
2017-03-27T04:22:23.726Z,1017.98
2017-03-27T04:23:23.706Z,1018
2017-03-27T04:24:23.682Z,1017.96
2017-03-27T04:25:23.657Z,1017.98
2017-03-27T04:26:23.684Z,1018.02
2017-03-27T04:27:23.617Z,1018.01
2017-03-27T04:28:23.686Z,1017.98
2017-03-27T04:29:23.567Z,1018
2017-03-27T04:30:23.553Z,1018.01
2017-03-27T04:31:23.524Z,1018.02
2017-03-27T04:32:23.506Z,1018.01
2017-03-27T04:33:23.482Z,1018
2017-03-27T04:34:23.460Z,1018.03
2017-03-27T04:35:23.435Z,1018.01
2017-03-27T04:36:23.416Z,1018
2017-03-27T04:37:23.397Z,1018.01
2017-03-27T04:38:23.372Z,1018.02
2017-03-27T04:39:23.348Z,1018.04
2017-03-27T04:40:23.361Z,1018.04
2017-03-27T04:41:23.307Z,1018.06
2017-03-27T04:42:23.286Z,1018.06
2017-03-27T04:43:23.261Z,1018.06
2017-03-27T04:44:23.245Z,1018.07
2017-03-27T04:45:23.223Z,1018.08
2017-03-27T04:46:23.198Z,1018.07
2017-03-27T04:47:23.174Z,1018.07
2017-03-27T04:48:23.153Z,1018.07
2017-03-27T04:49:23.130Z,1018.06
2017-03-27T04:50:23.114Z,1018.04
2017-03-27T04:51:23.086Z,1018.07
2017-03-27T04:52:23.278Z,1018.12
2017-03-27T04:53:23.042Z,1018.13
2017-03-27T04:54:23.017Z,1018.11
2017-03-27T04:55:22.996Z,1018.14
2017-03-27T04:56:22.976Z,1018.13
2017-03-27T04:57:22.954Z,1018.17
2017-03-27T04:58:22.931Z,1018.16
2017-03-27T04:59:22.907Z,1018.14
2017-03-27T05:00:22.885Z,1018.16
2017-03-27T05:01:22.866Z,1018.12
2017-03-27T05:02:22.846Z,1018.15
2017-03-27T05:03:22.822Z,1018.16
2017-03-27T05:04:22.799Z,1018.17
2017-03-27T05:05:22.780Z,1018.17
2017-03-27T05:06:22.756Z,1018.16
2017-03-27T05:07:22.735Z,1018.19
2017-03-27T05:08:22.711Z,1018.17
2017-03-27T05:09:22.686Z,1018.2
2017-03-27T05:10:22.666Z,1018.18
2017-03-27T05:11:22.645Z,1018.19
2017-03-27T05:12:22.627Z,1018.17
2017-03-27T05:13:22.598Z,1018.2
2017-03-27T05:14:22.575Z,1018.19
2017-03-27T05:15:22.551Z,1018.16
2017-03-27T05:16:22.536Z,1018.19
2017-03-27T05:17:22.516Z,1018.19
2017-03-27T05:18:22.485Z,1018.23
2017-03-27T05:19:22.470Z,1018.2
2017-03-27T05:20:22.445Z,1018.19
2017-03-27T05:21:22.427Z,1018.21
2017-03-27T05:22:22.405Z,1018.25
2017-03-27T05:23:22.376Z,1018.24
2017-03-27T05:24:22.357Z,1018.25
2017-03-27T05:25:22.336Z,1018.26
2017-03-27T05:26:22.311Z,1018.29
2017-03-27T05:27:22.285Z,1018.32
2017-03-27T05:28:22.266Z,1018.31
2017-03-27T05:29:22.246Z,1018.33
2017-03-27T05:30:22.225Z,1018.32
2017-03-27T05:31:22.198Z,1018.33
2017-03-27T05:32:22.174Z,1018.34
2017-03-27T05:33:22.152Z,1018.34
2017-03-27T05:34:22.134Z,1018.36
2017-03-27T05:35:22.115Z,1018.34
2017-03-27T05:36:22.094Z,1018.35
2017-03-27T05:37:22.065Z,1018.34
2017-03-27T05:38:22.046Z,1018.35
2017-03-27T05:39:22.028Z,1018.36
2017-03-27T05:40:22.000Z,1018.38
2017-03-27T05:41:21.980Z,1018.38
2017-03-27T05:42:21.966Z,1018.41
2017-03-27T05:43:21.938Z,1018.41
2017-03-27T05:44:21.916Z,1018.45
2017-03-27T05:45:21.896Z,1018.47
2017-03-27T05:46:21.864Z,1018.47
2017-03-27T05:47:21.844Z,1018.47
2017-03-27T05:48:21.825Z,1018.48
2017-03-27T05:49:21.806Z,1018.52
2017-03-27T05:50:21.781Z,1018.48
2017-03-27T05:51:21.755Z,1018.51
2017-03-27T05:52:21.735Z,1018.53
2017-03-27T05:53:21.713Z,1018.54
2017-03-27T05:54:21.695Z,1018.54
2017-03-27T05:55:21.675Z,1018.54
2017-03-27T05:56:21.646Z,1018.5
2017-03-27T05:57:21.623Z,1018.56
2017-03-27T05:58:21.603Z,1018.54
2017-03-27T05:59:21.586Z,1018.51
2017-03-27T06:00:21.565Z,1018.53
2017-03-27T06:01:21.537Z,1018.57
2017-03-27T06:02:21.515Z,1018.54
2017-03-27T06:03:21.489Z,1018.56
2017-03-27T06:04:21.472Z,1018.57
2017-03-27T06:05:21.448Z,1018.53
2017-03-27T06:06:21.424Z,1018.52
2017-03-27T06:07:21.406Z,1018.55
2017-03-27T06:08:21.389Z,1018.54
2017-03-27T06:09:21.366Z,1018.56
2017-03-27T06:10:21.345Z,1018.55
2017-03-27T06:11:21.316Z,1018.59
2017-03-27T06:12:21.294Z,1018.58
2017-03-27T06:13:21.273Z,1018.58
2017-03-27T06:14:21.255Z,1018.6
2017-03-27T06:15:21.235Z,1018.62
2017-03-27T06:16:21.208Z,1018.61
2017-03-27T06:17:21.185Z,1018.61
2017-03-27T06:18:21.166Z,1018.63
2017-03-27T06:19:21.140Z,1018.6
2017-03-27T06:20:21.125Z,1018.61
2017-03-27T06:21:21.094Z,1018.64
2017-03-27T06:22:21.074Z,1018.63
2017-03-27T06:23:21.054Z,1018.63
2017-03-27T06:24:21.033Z,1018.65
2017-03-27T06:25:21.014Z,1018.66
2017-03-27T06:26:20.988Z,1018.61
2017-03-27T06:27:20.974Z,1018.61
2017-03-27T06:28:20.945Z,1018.59
2017-03-27T06:29:20.923Z,1018.6
2017-03-27T06:30:20.904Z,1018.61
2017-03-27T06:31:20.882Z,1018.65
2017-03-27T06:32:20.859Z,1018.65
2017-03-27T06:33:20.840Z,1018.67
2017-03-27T06:34:20.815Z,1018.65
2017-03-27T06:35:20.795Z,1018.68
2017-03-27T06:36:20.772Z,1018.71
2017-03-27T06:37:20.750Z,1018.75
2017-03-27T06:38:20.734Z,1018.74
2017-03-27T06:39:20.710Z,1018.71
2017-03-27T06:40:20.685Z,1018.69
2017-03-27T06:41:20.665Z,1018.7
2017-03-27T06:42:20.643Z,1018.7
2017-03-27T06:43:20.624Z,1018.74
2017-03-27T06:44:20.601Z,1018.75
2017-03-27T06:45:20.575Z,1018.74
2017-03-27T06:46:20.556Z,1018.79
2017-03-27T06:47:20.538Z,1018.81
2017-03-27T06:48:20.512Z,1018.83
2017-03-27T06:49:20.495Z,1018.82
2017-03-27T06:50:20.469Z,1018.82
2017-03-27T06:51:20.447Z,1018.84
2017-03-27T06:52:20.425Z,1018.85
2017-03-27T06:53:20.405Z,1018.86
2017-03-27T06:54:20.383Z,1018.86
2017-03-27T06:55:20.365Z,1018.89
2017-03-27T06:56:20.341Z,1018.87
2017-03-27T06:57:20.323Z,1018.88
2017-03-27T06:58:20.306Z,1018.86
2017-03-27T06:59:20.285Z,1018.86
2017-03-27T07:00:20.261Z,1018.93
2017-03-27T07:01:20.235Z,1018.94
2017-03-27T07:02:20.214Z,1019.03
2017-03-27T07:03:20.195Z,1019.09
2017-03-27T07:04:20.175Z,1019.14
2017-03-27T07:05:20.152Z,1019.17
2017-03-27T07:06:20.133Z,1019.21
2017-03-27T07:07:20.119Z,1019.08
2017-03-27T07:08:20.094Z,1019.04
2017-03-27T07:09:20.074Z,1019.02
2017-03-27T07:10:20.060Z,1019.05
2017-03-27T07:11:20.037Z,1019.03
2017-03-27T07:12:20.021Z,1019.06
2017-03-27T07:13:20.007Z,1019.06
2017-03-27T07:14:19.988Z,1019.08
2017-03-27T07:15:19.973Z,1019.08
2017-03-27T07:16:19.949Z,1019.09
2017-03-27T07:17:19.933Z,1019.09
2017-03-27T07:18:19.915Z,1019.12
2017-03-27T07:19:19.901Z,1019.14
2017-03-27T07:20:19.883Z,1019.16
2017-03-27T07:21:19.865Z,1019.14
2017-03-27T07:22:19.846Z,1019.14
2017-03-27T07:23:19.881Z,1019.13
2017-03-27T07:24:19.815Z,1019.12
2017-03-27T07:25:19.795Z,1019.05
2017-03-27T07:26:19.784Z,1019.11
2017-03-27T07:27:19.775Z,1019.15
2017-03-27T07:28:19.756Z,1019.18
2017-03-27T07:29:19.739Z,1019.21
2017-03-27T07:30:19.716Z,1019.2
2017-03-27T07:31:19.706Z,1019.21
2017-03-27T07:32:19.685Z,1019.2
2017-03-27T07:33:19.676Z,1019.22
2017-03-27T07:34:19.650Z,1019.24
2017-03-27T07:35:19.638Z,1019.27
2017-03-27T07:36:19.620Z,1019.3
2017-03-27T07:37:19.605Z,1019.32
2017-03-27T07:38:19.599Z,1019.32
2017-03-27T07:39:19.626Z,1019.36
2017-03-27T07:40:19.565Z,1019.37
2017-03-27T07:41:19.543Z,1019.39
2017-03-27T07:42:19.533Z,1019.39
2017-03-27T07:43:19.516Z,1019.39
2017-03-27T07:44:19.504Z,1019.47
2017-03-27T07:45:19.495Z,1019.44
2017-03-27T07:46:19.474Z,1019.49
2017-03-27T07:47:19.464Z,1019.47
2017-03-27T07:48:19.455Z,1019.4
2017-03-27T07:49:19.447Z,1019.47
2017-03-27T07:50:19.426Z,1019.56
2017-03-27T07:51:19.425Z,1019.57
2017-03-27T07:52:19.408Z,1019.64
2017-03-27T07:53:19.394Z,1019.65
2017-03-27T07:54:19.380Z,1019.66
2017-03-27T07:55:19.373Z,1019.64
2017-03-27T07:56:19.365Z,1019.63
2017-03-27T07:57:19.357Z,1019.61
2017-03-27T07:58:19.346Z,1019.58
2017-03-27T07:59:19.336Z,1019.61
2017-03-27T08:00:19.330Z,1019.58
2017-03-27T08:01:19.317Z,1019.64
2017-03-27T08:02:19.309Z,1019.63
2017-03-27T08:03:19.308Z,1019.65
2017-03-27T08:04:19.297Z,1019.64
2017-03-27T08:05:19.287Z,1019.63
2017-03-27T08:06:19.284Z,1019.6
2017-03-27T08:07:19.275Z,1019.61
2017-03-27T08:08:19.268Z,1019.56
2017-03-27T08:09:19.268Z,1019.58
2017-03-27T08:10:19.259Z,1019.59
2017-03-27T08:11:19.255Z,1019.61
2017-03-27T08:12:19.342Z,1019.6
2017-03-27T08:13:19.244Z,1019.58
2017-03-27T08:14:19.346Z,1019.59
2017-03-27T08:15:19.236Z,1019.59
2017-03-27T08:16:19.234Z,1019.58
2017-03-27T08:17:19.227Z,1019.56
2017-03-27T08:18:19.276Z,1019.57
2017-03-27T08:19:19.215Z,1019.57
2017-03-27T08:20:19.315Z,1019.57
2017-03-27T08:21:19.214Z,1019.58
2017-03-27T08:22:19.259Z,1019.56
2017-03-27T08:23:19.205Z,1019.58
2017-03-27T08:24:19.255Z,1019.61
2017-03-27T08:25:19.198Z,1019.59
2017-03-27T08:26:19.194Z,1019.56
2017-03-27T08:27:19.197Z,1019.53
2017-03-27T08:28:19.193Z,1019.54
2017-03-27T08:29:19.184Z,1019.53
2017-03-27T08:30:19.185Z,1019.52
2017-03-27T08:31:19.185Z,1019.51
2017-03-27T08:32:19.176Z,1019.49
2017-03-27T08:33:19.177Z,1019.53
2017-03-27T08:34:19.174Z,1019.47
2017-03-27T08:35:19.179Z,1019.52
2017-03-27T08:36:19.167Z,1019.51
2017-03-27T08:37:19.167Z,1019.48
2017-03-27T08:38:19.165Z,1019.48
2017-03-27T08:39:19.165Z,1019.47
2017-03-27T08:40:19.166Z,1019.47
2017-03-27T08:41:19.165Z,1019.48
2017-03-27T08:42:19.160Z,1019.5
2017-03-27T08:43:19.166Z,1019.47
2017-03-27T08:44:19.151Z,1019.48
2017-03-27T08:45:19.200Z,1019.49
2017-03-27T08:46:19.152Z,1019.46
2017-03-27T08:47:19.204Z,1019.47
2017-03-27T08:48:19.148Z,1019.42
2017-03-27T08:49:19.195Z,1019.48
2017-03-27T08:50:19.157Z,1019.42
2017-03-27T08:51:19.146Z,1019.43
2017-03-27T08:52:19.142Z,1019.36
2017-03-27T08:53:19.137Z,1019.45
2017-03-27T08:54:19.137Z,1019.4
2017-03-27T08:55:19.137Z,1019.42
2017-03-27T08:56:19.137Z,1019.36
2017-03-27T08:57:19.136Z,1019.41
2017-03-27T08:58:19.138Z,1019.39
2017-03-27T08:59:19.134Z,1019.37
2017-03-27T09:00:19.130Z,1019.36
2017-03-27T09:01:19.137Z,1019.36
2017-03-27T09:02:19.134Z,1019.34
2017-03-27T09:03:19.135Z,1019.37
2017-03-27T09:04:19.137Z,1019.38
2017-03-27T09:05:19.127Z,1019.35
2017-03-27T09:06:19.124Z,1019.31
2017-03-27T09:07:19.127Z,1019.33
2017-03-27T09:08:19.154Z,1019.32
2017-03-27T09:09:19.126Z,1019.33
2017-03-27T09:10:19.130Z,1019.26
2017-03-27T09:11:19.122Z,1019.25
2017-03-27T09:12:19.177Z,1019.29
2017-03-27T09:13:19.127Z,1019.28
2017-03-27T09:14:19.175Z,1019.27
2017-03-27T09:15:19.118Z,1019.29
2017-03-27T09:16:19.116Z,1019.3
2017-03-27T09:17:19.116Z,1019.31
2017-03-27T09:18:19.114Z,1019.29
2017-03-27T09:19:19.117Z,1019.26
2017-03-27T09:20:19.116Z,1019.28
2017-03-27T09:21:19.115Z,1019.31
2017-03-27T09:22:19.114Z,1019.28
2017-03-27T09:23:19.109Z,1019.34
2017-03-27T09:24:19.105Z,1019.31
2017-03-27T09:25:19.105Z,1019.29
2017-03-27T09:26:19.109Z,1019.27
2017-03-27T09:27:19.108Z,1019.3
2017-03-27T09:28:19.105Z,1019.29
2017-03-27T09:29:19.106Z,1019.27
2017-03-27T09:30:19.107Z,1019.29
2017-03-27T09:31:19.096Z,1019.31
2017-03-27T09:32:19.097Z,1019.29
2017-03-27T09:33:19.091Z,1019.29
2017-03-27T09:34:19.106Z,1019.27
2017-03-27T09:35:19.090Z,1019.25
2017-03-27T09:36:19.095Z,1019.23
2017-03-27T09:37:19.087Z,1019.25
2017-03-27T09:38:19.087Z,1019.23
2017-03-27T09:39:19.153Z,1019.22
2017-03-27T09:40:19.083Z,1019.2
2017-03-27T09:41:19.089Z,1019.19
2017-03-27T09:42:19.087Z,1019.2
2017-03-27T09:43:19.097Z,1019.17
2017-03-27T09:44:19.080Z,1019.16
2017-03-27T09:45:19.079Z,1019.16
2017-03-27T09:46:19.076Z,1019.15
2017-03-27T09:47:19.075Z,1019.14
2017-03-27T09:48:19.076Z,1019.12
2017-03-27T09:49:19.078Z,1019.12
2017-03-27T09:50:19.074Z,1019.11
2017-03-27T09:51:19.067Z,1019.09
2017-03-27T09:52:19.068Z,1019.08
2017-03-27T09:53:19.064Z,1019.11
2017-03-27T09:54:19.364Z,1019.08
2017-03-27T09:55:19.067Z,1019.07
2017-03-27T09:56:19.061Z,1019.08
2017-03-27T09:57:19.056Z,1019.04
2017-03-27T09:58:19.057Z,1019
2017-03-27T09:59:19.045Z,1019.02
2017-03-27T10:00:19.046Z,1019
2017-03-27T10:01:19.047Z,1019.01
2017-03-27T10:02:19.045Z,1018.99
2017-03-27T10:03:19.035Z,1018.96
2017-03-27T10:04:19.058Z,1018.99
2017-03-27T10:05:19.034Z,1018.97
2017-03-27T10:06:19.111Z,1019
2017-03-27T10:07:19.027Z,1018.95
2017-03-27T10:08:19.028Z,1018.95
2017-03-27T10:09:19.018Z,1018.93
2017-03-27T10:10:19.013Z,1018.92
2017-03-27T10:11:19.007Z,1018.91
2017-03-27T10:12:19.001Z,1018.93
2017-03-27T10:13:18.999Z,1018.9
2017-03-27T10:14:18.993Z,1018.88
2017-03-27T10:15:18.993Z,1018.98
2017-03-27T10:16:18.987Z,1018.9
2017-03-27T10:17:18.984Z,1018.85
2017-03-27T10:18:18.977Z,1018.83
2017-03-27T10:19:18.972Z,1018.87
2017-03-27T10:20:18.966Z,1018.83
2017-03-27T10:21:18.957Z,1018.83
2017-03-27T10:22:18.959Z,1018.86
2017-03-27T10:23:18.949Z,1018.87
2017-03-27T10:24:18.949Z,1018.83
2017-03-27T10:25:18.933Z,1018.84
2017-03-27T10:26:18.927Z,1018.83
2017-03-27T10:27:18.925Z,1018.83
2017-03-27T10:28:18.916Z,1018.79
2017-03-27T10:29:18.913Z,1018.77
2017-03-27T10:30:18.909Z,1018.76
2017-03-27T10:31:18.895Z,1018.79
2017-03-27T10:32:18.895Z,1018.77
2017-03-27T10:33:18.887Z,1018.77
2017-03-27T10:34:18.877Z,1018.8
2017-03-27T10:35:18.874Z,1018.75
2017-03-27T10:36:18.863Z,1018.77
2017-03-27T10:37:18.862Z,1018.79
2017-03-27T10:38:18.852Z,1018.73
2017-03-27T10:39:18.846Z,1018.72
2017-03-27T10:40:18.837Z,1018.71
2017-03-27T10:41:18.834Z,1018.67
2017-03-27T10:42:18.826Z,1018.69
2017-03-27T10:43:18.815Z,1018.73
2017-03-27T10:44:18.807Z,1018.66
2017-03-27T10:45:18.798Z,1018.6
2017-03-27T10:46:18.796Z,1018.65
2017-03-27T10:47:18.787Z,1018.58
2017-03-27T10:48:18.782Z,1018.58
2017-03-27T10:49:18.776Z,1018.56
2017-03-27T10:50:18.773Z,1018.56
2017-03-27T10:51:18.756Z,1018.54
2017-03-27T10:52:18.751Z,1018.47
2017-03-27T10:53:18.742Z,1018.51
2017-03-27T10:54:18.734Z,1018.52
2017-03-27T10:55:18.724Z,1018.56
2017-03-27T10:56:18.717Z,1018.56
2017-03-27T10:57:18.710Z,1018.53
2017-03-27T10:58:18.704Z,1018.5
2017-03-27T10:59:18.717Z,1018.47
2017-03-27T11:00:18.687Z,1018.41
2017-03-27T11:01:18.680Z,1018.41
2017-03-27T11:02:18.680Z,1018.4
2017-03-27T11:03:18.663Z,1018.41
2017-03-27T11:04:18.656Z,1018.47
2017-03-27T11:05:18.645Z,1018.5
2017-03-27T11:06:18.636Z,1018.5
2017-03-27T11:07:18.629Z,1018.45
2017-03-27T11:08:18.620Z,1018.45
2017-03-27T11:09:18.616Z,1018.46
2017-03-27T11:10:18.607Z,1018.37
2017-03-27T11:11:18.594Z,1018.38
2017-03-27T11:12:18.586Z,1018.35
2017-03-27T11:13:18.580Z,1018.33
2017-03-27T11:14:18.567Z,1018.31
2017-03-27T11:15:18.558Z,1018.31
2017-03-27T11:16:18.549Z,1018.34
2017-03-27T11:17:18.543Z,1018.32
2017-03-27T11:18:18.535Z,1018.29
2017-03-27T11:19:18.527Z,1018.31
2017-03-27T11:20:18.515Z,1018.27
2017-03-27T11:21:18.509Z,1018.25
2017-03-27T11:22:18.496Z,1018.27
2017-03-27T11:23:18.492Z,1018.25
2017-03-27T11:24:18.478Z,1018.21
2017-03-27T11:25:18.470Z,1018.21
2017-03-27T11:26:18.456Z,1018.22
2017-03-27T11:27:18.451Z,1018.17
2017-03-27T11:28:18.440Z,1018.25
2017-03-27T11:29:18.431Z,1018.19
2017-03-27T11:30:18.424Z,1018.21
2017-03-27T11:31:18.416Z,1018.16
2017-03-27T11:32:18.402Z,1018.21
2017-03-27T11:33:18.392Z,1018.16
2017-03-27T11:34:18.386Z,1018.15
2017-03-27T11:35:18.376Z,1018.22
2017-03-27T11:36:18.368Z,1018.17
2017-03-27T11:37:18.357Z,1018.16
2017-03-27T11:38:18.358Z,1018.12
2017-03-27T11:39:18.347Z,1018.12
2017-03-27T11:40:18.328Z,1018.08
2017-03-27T11:41:18.323Z,1018.04
2017-03-27T11:42:18.311Z,1018.07
2017-03-27T11:43:18.307Z,1018.07
2017-03-27T11:44:18.331Z,1018.02
2017-03-27T11:45:18.286Z,1018.03
2017-03-27T11:46:18.273Z,1018
2017-03-27T11:47:18.269Z,1017.99
2017-03-27T11:48:18.255Z,1018.01
2017-03-27T11:49:18.261Z,1017.98
2017-03-27T11:50:18.237Z,1017.92
2017-03-27T11:51:18.229Z,1017.95
2017-03-27T11:52:18.217Z,1017.91
2017-03-27T11:53:18.206Z,1017.93
2017-03-27T11:54:18.196Z,1017.97
2017-03-27T11:55:18.186Z,1017.98
2017-03-27T11:56:18.189Z,1017.99
2017-03-27T11:57:18.168Z,1017.95
2017-03-27T11:58:18.160Z,1017.94
2017-03-27T11:59:18.155Z,1017.9
2017-03-27T12:00:18.137Z,1017.96
2017-03-27T12:01:18.135Z,1017.93
2017-03-27T12:02:18.123Z,1017.92
2017-03-27T12:03:18.115Z,1017.91
2017-03-27T12:04:18.107Z,1017.91
2017-03-27T12:05:18.091Z,1017.87
2017-03-27T12:06:18.086Z,1017.91
2017-03-27T12:07:18.075Z,1017.87
2017-03-27T12:08:18.068Z,1017.85